Time;durP1;ratioP1;P1;durP2;ratioP2;P2;SDS_P1;SDS_P2;PMS_P1;PMS_P2;Temp;Humidity;BMP_temperature;BMP_pressure;BME280_temperature;BME280_humidity;BME280_pressure;Samples;Min_cycle;Max_cycle;Signal;HPM_P1;HPM_P2
2023/04/06 00:00:27;;;;;;;0.87;0.80;;;;;;;;;;5068960;28;20280;-58
2023/04/06 00:02:54;;;;;;;1.30;1.20;;;;;;;;;;5060854;28;20207;-57
2023/04/06 00:05:21;;;;;;;6.23;0.93;;;;;;;;;;5050664;28;20214;-57
2023/04/06 00:07:48;;;;;;;0.70;0.70;;;;;;;;;;5058723;28;20569;-58
2023/04/06 00:10:15;;;;;;;1.27;0.80;;;;;;;;;;5053722;28;20210;-58
2023/04/06 00:12:43;;;;;;;0.83;0.83;;;;;;;;;;5057229;28;20202;-58
2023/04/06 00:15:10;;;;;;;2.40;1.20;;;;;;;;;;5070594;28;20206;-58
2023/04/06 00:17:38;;;;;;;1.03;1.00;;;;;;;;;;5065178;28;20226;-58
2023/04/06 00:20:06;;;;;;;0.63;0.63;;;;;;;;;;5051910;28;20207;-57
2023/04/06 00:22:33;;;;;;;0.80;0.80;;;;;;;;;;5054548;28;20707;-59
2023/04/06 00:25:00;;;;;;;1.63;0.97;;;;;;;;;;5070311;28;20214;-58
2023/04/06 00:27:27;;;;;;;0.77;0.77;;;;;;;;;;5066651;28;20222;-58
2023/04/06 00:29:54;;;;;;;0.70;0.70;;;;;;;;;;5065724;28;20206;-57
2023/04/06 00:32:21;;;;;;;0.90;0.90;;;;;;;;;;5067534;28;20627;-57
2023/04/06 00:34:50;;;;;;;1.77;1.10;;;;;;;;;;5050571;28;20210;-56
2023/04/06 00:37:17;;;;;;;2.30;0.90;;;;;;;;;;5051648;28;20230;-57
2023/04/06 00:39:44;;;;;;;1.10;1.10;;;;;;;;;;5069632;28;20234;-57
2023/04/06 00:42:13;;;;;;;1.20;1.07;;;;;;;;;;5068288;28;20221;-56
2023/04/06 00:44:40;;;;;;;1.23;0.93;;;;;;;;;;5051568;28;20233;-56
2023/04/06 00:47:07;;;;;;;1.20;1.10;;;;;;;;;;5050492;28;20208;-56
2023/04/06 00:49:34;;;;;;;1.50;1.23;;;;;;;;;;5058402;28;20667;-57
2023/04/06 00:52:03;;;;;;;1.17;1.10;;;;;;;;;;5051353;28;20298;-57
2023/04/06 00:54:31;;;;;;;1.43;1.33;;;;;;;;;;5064100;28;20761;-57
2023/04/06 00:56:58;;;;;;;1.10;0.90;;;;;;;;;;5050002;28;20278;-56
2023/04/06 00:59:25;;;;;;;0.73;0.73;;;;;;;;;;5053268;28;20212;-57
2023/04/06 01:01:52;;;;;;;1.03;1.03;;;;;;;;;;5048759;28;20211;-57
2023/04/06 01:04:19;;;;;;;1.10;1.10;;;;;;;;;;5066690;28;20212;-57
2023/04/06 01:06:46;;;;;;;2.30;1.07;;;;;;;;;;5067489;28;20252;-56
2023/04/06 01:09:15;;;;;;;2.40;1.47;;;;;;;;;;5050765;28;20209;-57
2023/04/06 01:11:42;;;;;;;1.80;1.20;;;;;;;;;;5050084;28;20695;-57
2023/04/06 01:14:09;;;;;;;1.10;1.10;;;;;;;;;;5055416;28;20205;-57
2023/04/06 01:16:36;;;;;;;1.80;1.17;;;;;;;;;;5064150;28;20199;-57
2023/04/06 01:19:08;;;;;;;3.90;1.20;;;;;;;;;;5059864;28;20209;-56
2023/04/06 01:21:35;;;;;;;1.33;0.90;;;;;;;;;;5061869;28;20364;-57
2023/04/06 01:24:03;;;;;;;6.70;1.17;;;;;;;;;;5069667;28;20214;-57
2023/04/06 01:26:30;;;;;;;1.37;1.03;;;;;;;;;;5058208;28;20218;-57
2023/04/06 01:28:58;;;;;;;2.10;1.20;;;;;;;;;;5050677;28;20226;-57
2023/04/06 01:31:26;;;;;;;1.17;1.17;;;;;;;;;;5058415;28;20213;-57
2023/04/06 01:33:53;;;;;;;2.00;1.00;;;;;;;;;;5058264;28;20268;-56
2023/04/06 01:36:20;;;;;;;0.90;0.90;;;;;;;;;;5057697;28;20206;-56
2023/04/06 01:38:47;;;;;;;1.20;1.17;;;;;;;;;;5068861;28;20257;-56
2023/04/06 01:41:15;;;;;;;1.60;1.50;;;;;;;;;;5062327;28;20216;-56
2023/04/06 01:43:42;;;;;;;1.53;1.43;;;;;;;;;;5061830;28;20284;-56
2023/04/06 01:46:09;;;;;;;1.87;1.77;;;;;;;;;;5054931;28;20204;-56
2023/04/06 01:48:36;;;;;;;2.67;1.53;;;;;;;;;;5068999;28;20195;-57
2023/04/06 01:51:04;;;;;;;1.03;1.03;;;;;;;;;;5066757;28;20204;-56
2023/04/06 01:53:31;;;;;;;3.13;1.57;;;;;;;;;;5067269;28;20253;-57
2023/04/06 01:55:58;;;;;;;1.10;1.10;;;;;;;;;;5061574;28;20234;-57
2023/04/06 01:58:26;;;;;;;1.27;1.27;;;;;;;;;;5068518;28;20237;-56
2023/04/06 02:00:54;;;;;;;0.83;0.83;;;;;;;;;;5050274;28;20208;-56
2023/04/06 02:03:21;;;;;;;0.70;0.70;;;;;;;;;;5049271;28;20210;-57
2023/04/06 02:05:48;;;;;;;0.67;0.67;;;;;;;;;;5067953;28;20220;-56
2023/04/06 02:08:15;;;;;;;0.60;0.60;;;;;;;;;;5066899;28;20203;-56
2023/04/06 02:10:42;;;;;;;2.43;0.70;;;;;;;;;;5068485;28;20214;-56
2023/04/06 02:13:09;;;;;;;10.27;1.10;;;;;;;;;;5054112;28;20690;-56
2023/04/06 02:15:37;;;;;;;0.90;0.90;;;;;;;;;;5061379;28;20207;-57
2023/04/06 02:18:04;;;;;;;0.80;0.80;;;;;;;;;;5049990;28;20243;-57
2023/04/06 02:20:31;;;;;;;0.70;0.70;;;;;;;;;;5068546;28;20627;-56
2023/04/06 02:23:00;;;;;;;0.90;0.90;;;;;;;;;;5064092;28;20228;-56
2023/04/06 02:25:27;;;;;;;0.83;0.83;;;;;;;;;;5056755;28;20262;-56
2023/04/06 02:27:55;;;;;;;0.80;0.80;;;;;;;;;;5066607;28;20220;-56
2023/04/06 02:30:22;;;;;;;0.73;0.73;;;;;;;;;;5052068;28;20204;-56
2023/04/06 02:32:50;;;;;;;1.00;0.87;;;;;;;;;;5054122;28;20200;-57
2023/04/06 02:35:17;;;;;;;1.03;1.03;;;;;;;;;;5072820;28;20238;-56
2023/04/06 02:37:44;;;;;;;1.97;1.13;;;;;;;;;;5071351;28;20222;-56
2023/04/06 02:40:12;;;;;;;0.87;0.87;;;;;;;;;;5053733;28;20858;-56
2023/04/06 02:42:39;;;;;;;1.23;1.20;;;;;;;;;;5055563;28;20204;-56
2023/04/06 02:45:06;;;;;;;0.97;0.97;;;;;;;;;;5053569;28;20212;-59
2023/04/06 02:47:34;;;;;;;0.87;0.80;;;;;;;;;;5068807;28;20214;-57
2023/04/06 02:50:02;;;;;;;1.70;1.07;;;;;;;;;;5065481;28;20207;-56
2023/04/06 02:52:29;;;;;;;0.80;0.80;;;;;;;;;;5053944;28;20269;-57
2023/04/06 02:54:57;;;;;;;0.83;0.83;;;;;;;;;;5069647;28;20212;-57
2023/04/06 02:57:24;;;;;;;1.03;1.03;;;;;;;;;;5051829;28;20224;-57
2023/04/06 02:59:51;;;;;;;0.93;0.83;;;;;;;;;;5051613;28;21866;-58
2023/04/06 03:02:18;;;;;;;0.90;0.90;;;;;;;;;;5051992;28;20203;-58
2023/04/06 03:04:45;;;;;;;0.90;0.90;;;;;;;;;;5052006;28;20210;-58
2023/04/06 03:07:14;;;;;;;0.80;0.80;;;;;;;;;;5051635;28;20666;-57
2023/04/06 03:09:41;;;;;;;1.00;0.83;;;;;;;;;;5052063;28;20292;-57
2023/04/06 03:12:08;;;;;;;0.70;0.70;;;;;;;;;;5051415;28;20215;-57
2023/04/06 03:14:35;;;;;;;0.93;0.93;;;;;;;;;;5051869;28;20783;-57
2023/04/06 03:17:02;;;;;;;0.73;0.73;;;;;;;;;;5051267;28;20204;-57
2023/04/06 03:19:29;;;;;;;2.27;1.20;;;;;;;;;;5051507;28;20318;-57
2023/04/06 03:21:57;;;;;;;1.60;0.60;;;;;;;;;;5051484;28;20228;-57
2023/04/06 03:24:25;;;;;;;1.53;1.30;;;;;;;;;;5052097;28;20203;-57
2023/04/06 03:26:52;;;;;;;0.53;0.53;;;;;;;;;;5063351;28;20619;-57
2023/04/06 03:29:19;;;;;;;1.23;0.53;;;;;;;;;;5051716;28;20206;-57
2023/04/06 03:31:46;;;;;;;0.87;0.87;;;;;;;;;;5053056;28;20240;-57
2023/04/06 03:34:13;;;;;;;0.83;0.83;;;;;;;;;;5058491;28;20650;-57
2023/04/06 03:36:40;;;;;;;1.53;0.73;;;;;;;;;;5071476;28;20210;-57
2023/04/06 03:39:07;;;;;;;0.63;0.60;;;;;;;;;;5068532;28;20242;-57
2023/04/06 03:41:36;;;;;;;0.43;0.43;;;;;;;;;;5050075;28;20688;-57
2023/04/06 03:44:03;;;;;;;0.90;0.90;;;;;;;;;;5050897;28;20203;-57
2023/04/06 03:46:30;;;;;;;3.43;0.73;;;;;;;;;;5050685;28;20258;-57
2023/04/06 03:48:57;;;;;;;1.07;1.00;;;;;;;;;;5050793;28;20565;-57
2023/04/06 03:51:25;;;;;;;1.50;1.03;;;;;;;;;;5050690;28;20676;-57
2023/04/06 03:53:52;;;;;;;2.03;1.20;;;;;;;;;;5051276;28;20211;-56
2023/04/06 03:56:20;;;;;;;4.13;1.10;;;;;;;;;;5066229;28;20293;-57
2023/04/06 03:58:50;;;;;;;0.43;0.43;;;;;;;;;;5051211;28;20288;-57
2023/04/06 04:01:17;;;;;;;0.87;0.87;;;;;;;;;;5060405;28;20732;-57
2023/04/06 04:03:44;;;;;;;0.70;0.70;;;;;;;;;;5065250;28;20243;-57
2023/04/06 04:06:12;;;;;;;0.97;0.97;;;;;;;;;;5061292;28;20547;-57
2023/04/06 04:08:39;;;;;;;0.60;0.60;;;;;;;;;;5070931;28;20210;-57
2023/04/06 04:11:06;;;;;;;1.67;1.03;;;;;;;;;;5068088;28;20239;-57
2023/04/06 04:13:33;;;;;;;0.73;0.73;;;;;;;;;;5053002;28;20204;-57
2023/04/06 04:16:01;;;;;;;1.03;0.87;;;;;;;;;;5060360;28;20233;-57
2023/04/06 04:18:28;;;;;;;0.90;0.90;;;;;;;;;;5050561;28;20287;-57
2023/04/06 04:20:55;;;;;;;0.90;0.90;;;;;;;;;;5050495;28;20208;-57
2023/04/06 04:23:22;;;;;;;1.20;0.93;;;;;;;;;;5050627;28;20242;-57
2023/04/06 04:25:50;;;;;;;1.37;0.73;;;;;;;;;;5060113;28;20203;-58
2023/04/06 04:28:17;;;;;;;1.07;0.60;;;;;;;;;;5050346;28;20196;-57
2023/04/06 04:30:45;;;;;;;1.90;1.00;;;;;;;;;;5050026;28;20211;-57
2023/04/06 04:33:13;;;;;;;0.60;0.57;;;;;;;;;;5050313;28;20215;-57
2023/04/06 04:35:40;;;;;;;2.07;0.97;;;;;;;;;;5049944;28;20663;-58
2023/04/06 04:38:07;;;;;;;1.67;0.70;;;;;;;;;;5049679;28;20241;-57
2023/04/06 04:40:34;;;;;;;0.93;0.60;;;;;;;;;;5050243;28;20204;-57
2023/04/06 04:43:01;;;;;;;0.77;0.77;;;;;;;;;;5049844;28;20681;-57
2023/04/06 04:45:28;;;;;;;0.73;0.73;;;;;;;;;;5050198;28;20211;-58
2023/04/06 04:47:55;;;;;;;0.73;0.67;;;;;;;;;;5049809;28;20204;-57
2023/04/06 04:50:24;;;;;;;0.70;0.70;;;;;;;;;;5050260;28;20663;-57
2023/04/06 04:52:51;;;;;;;1.20;1.10;;;;;;;;;;5049509;28;20203;-57
2023/04/06 04:55:18;;;;;;;0.40;0.40;;;;;;;;;;5058128;28;20209;-57
2023/04/06 04:57:45;;;;;;;1.20;0.77;;;;;;;;;;5054111;28;20231;-57
2023/04/06 05:00:12;;;;;;;0.90;0.50;;;;;;;;;;5065257;28;20203;-57
2023/04/06 05:02:40;;;;;;;3.70;1.27;;;;;;;;;;5056457;28;20229;-57
2023/04/06 05:05:07;;;;;;;1.10;0.80;;;;;;;;;;5059870;28;20297;-57
2023/04/06 05:07:36;;;;;;;2.00;1.33;;;;;;;;;;5068099;28;20578;-57
2023/04/06 05:10:03;;;;;;;0.93;0.93;;;;;;;;;;5051350;28;20209;-57
2023/04/06 05:12:30;;;;;;;1.80;1.53;;;;;;;;;;5050104;28;20212;-58
2023/04/06 05:14:57;;;;;;;0.70;0.70;;;;;;;;;;5057361;28;20206;-57
2023/04/06 05:17:24;;;;;;;1.10;1.07;;;;;;;;;;5068178;28;20211;-57
2023/04/06 05:19:51;;;;;;;0.80;0.80;;;;;;;;;;5060020;28;20234;-57
2023/04/06 05:22:18;;;;;;;0.50;0.50;;;;;;;;;;5069246;28;20232;-57
2023/04/06 05:24:46;;;;;;;1.20;1.00;;;;;;;;;;5067887;28;20630;-57
2023/04/06 05:27:13;;;;;;;3.10;1.07;;;;;;;;;;5069363;28;20221;-57
2023/04/06 05:29:41;;;;;;;0.57;0.50;;;;;;;;;;5061011;28;20207;-57
2023/04/06 05:32:08;;;;;;;1.50;0.67;;;;;;;;;;5053988;28;20285;-57
2023/04/06 05:34:35;;;;;;;0.60;0.60;;;;;;;;;;5060013;28;20208;-57
2023/04/06 05:37:02;;;;;;;0.60;0.60;;;;;;;;;;5059940;28;20307;-56
2023/04/06 05:39:29;;;;;;;1.10;1.10;;;;;;;;;;5064672;28;20238;-57
2023/04/06 05:41:58;;;;;;;2.33;0.87;;;;;;;;;;5062500;28;20215;-58
2023/04/06 05:44:25;;;;;;;2.23;0.83;;;;;;;;;;5064577;28;20207;-57
2023/04/06 05:46:52;;;;;;;2.97;1.43;;;;;;;;;;5050655;28;20204;-58
2023/04/06 05:49:19;;;;;;;1.07;1.07;;;;;;;;;;5056841;28;20203;-58
2023/04/06 05:51:46;;;;;;;1.07;1.03;;;;;;;;;;5068671;28;20226;-57
2023/04/06 05:54:13;;;;;;;1.37;1.30;;;;;;;;;;5066808;28;20207;-57
2023/04/06 05:56:40;;;;;;;1.87;1.30;;;;;;;;;;5068472;28;20211;-57
2023/04/06 05:59:08;;;;;;;2.17;1.50;;;;;;;;;;5067457;28;20237;-57
2023/04/06 06:01:35;;;;;;;2.00;1.80;;;;;;;;;;5069203;28;20219;-57
2023/04/06 06:04:03;;;;;;;2.33;1.13;;;;;;;;;;5067879;28;20322;-57
2023/04/06 06:06:30;;;;;;;1.27;1.20;;;;;;;;;;5048936;28;20256;-57
2023/04/06 06:08:58;;;;;;;2.03;1.33;;;;;;;;;;5048857;28;20210;-57
2023/04/06 06:11:26;;;;;;;2.13;2.03;;;;;;;;;;5048536;28;20301;-57
2023/04/06 06:13:53;;;;;;;2.30;2.17;;;;;;;;;;5048818;28;20290;-57
2023/04/06 06:16:21;;;;;;;5.20;2.17;;;;;;;;;;5048520;28;20222;-58
2023/04/06 06:18:48;;;;;;;5.27;1.83;;;;;;;;;;5048908;28;20284;-59
2023/04/06 06:21:16;;;;;;;1.63;1.53;;;;;;;;;;5048646;28;20566;-57
2023/04/06 06:23:44;;;;;;;2.27;2.10;;;;;;;;;;5048843;28;20235;-57
2023/04/06 06:26:11;;;;;;;4.90;1.80;;;;;;;;;;5063970;28;20860;-57
2023/04/06 06:28:38;;;;;;;7.37;2.23;;;;;;;;;;5069173;28;20211;-58
2023/04/06 06:31:05;;;;;;;5.63;2.17;;;;;;;;;;5053951;28;20214;-57
2023/04/06 06:33:34;;;;;;;2.30;2.20;;;;;;;;;;5048743;28;20310;-57
2023/04/06 06:36:01;;;;;;;2.20;2.00;;;;;;;;;;5048817;28;20215;-57
2023/04/06 06:38:28;;;;;;;2.47;2.23;;;;;;;;;;5048556;28;20244;-58
2023/04/06 06:40:55;;;;;;;4.30;2.70;;;;;;;;;;5049773;28;20317;-58
2023/04/06 06:43:22;;;;;;;2.47;2.27;;;;;;;;;;5048717;28;20687;-58
2023/04/06 06:45:49;;;;;;;3.47;2.57;;;;;;;;;;5049730;28;20196;-58
2023/04/06 06:48:16;;;;;;;3.60;2.80;;;;;;;;;;5048868;28;20217;-58
2023/04/06 06:50:44;;;;;;;2.70;2.50;;;;;;;;;;5063840;28;20210;-58
2023/04/06 06:53:11;;;;;;;5.70;3.13;;;;;;;;;;5068851;28;20321;-57
2023/04/06 06:55:38;;;;;;;5.70;3.30;;;;;;;;;;5066830;28;20222;-57
2023/04/06 06:58:06;;;;;;;3.83;2.70;;;;;;;;;;5067342;28;20260;-56
2023/04/06 07:00:34;;;;;;;3.90;3.07;;;;;;;;;;5048316;28;20230;-57
2023/04/06 07:03:01;;;;;;;3.93;3.20;;;;;;;;;;5061495;28;20264;-57
2023/04/06 07:05:28;;;;;;;5.33;2.97;;;;;;;;;;5056653;28;20670;-58
2023/04/06 07:07:56;;;;;;;3.40;3.10;;;;;;;;;;5048269;28;20214;-58
2023/04/06 07:10:23;;;;;;;5.20;3.20;;;;;;;;;;5048501;28;20204;-58
2023/04/06 07:12:50;;;;;;;4.83;3.33;;;;;;;;;;5048537;28;20266;-58
2023/04/06 07:15:18;;;;;;;8.83;3.60;;;;;;;;;;5048788;28;20495;-58
2023/04/06 07:17:45;;;;;;;4.30;3.43;;;;;;;;;;5051645;28;20207;-58
2023/04/06 07:20:12;;;;;;;4.03;3.33;;;;;;;;;;5051983;28;20335;-58
2023/04/06 07:22:39;;;;;;;4.27;3.87;;;;;;;;;;5051763;28;20607;-58
2023/04/06 07:25:08;;;;;;;7.37;3.77;;;;;;;;;;5058127;28;20603;-58
2023/04/06 07:27:36;;;;;;;4.20;3.53;;;;;;;;;;5071453;28;20280;-58
2023/04/06 07:30:03;;;;;;;4.17;3.83;;;;;;;;;;5071437;28;20207;-58
2023/04/06 07:32:30;;;;;;;5.40;3.90;;;;;;;;;;5071327;28;20206;-58
2023/04/06 07:34:57;;;;;;;5.47;4.17;;;;;;;;;;5070770;28;20246;-58
2023/04/06 07:37:25;;;;;;;5.23;3.87;;;;;;;;;;5071044;28;20207;-58
2023/04/06 07:39:52;;;;;;;6.20;4.23;;;;;;;;;;5071087;28;20257;-58
2023/04/06 07:42:20;;;;;;;5.20;4.00;;;;;;;;;;5071399;28;20501;-57
2023/04/06 07:44:47;;;;;;;4.73;3.70;;;;;;;;;;5071417;28;20698;-57
2023/04/06 07:47:14;;;;;;;4.23;3.83;;;;;;;;;;5071504;28;20214;-57
2023/04/06 07:49:41;;;;;;;5.23;4.07;;;;;;;;;;5071367;28;20659;-57
2023/04/06 07:52:08;;;;;;;4.27;3.87;;;;;;;;;;5070533;28;20673;-57
2023/04/06 07:54:35;;;;;;;4.17;3.47;;;;;;;;;;5056908;28;20207;-57
2023/04/06 07:57:02;;;;;;;7.60;4.00;;;;;;;;;;5060326;28;20208;-57
2023/04/06 07:59:31;;;;;;;5.47;4.33;;;;;;;;;;5050805;28;20630;-57
2023/04/06 08:01:58;;;;;;;4.43;3.90;;;;;;;;;;5054386;28;20249;-56
2023/04/06 08:04:25;;;;;;;4.20;3.80;;;;;;;;;;5062975;28;20254;-61
2023/04/06 08:06:52;;;;;;;10.90;3.90;;;;;;;;;;5051124;28;20580;-60
2023/04/06 08:09:19;;;;;;;6.70;4.10;;;;;;;;;;5056832;28;20202;-61
2023/04/06 08:11:47;;;;;;;5.37;4.30;;;;;;;;;;5069268;28;20707;-58
2023/04/06 08:14:15;;;;;;;6.07;4.70;;;;;;;;;;5053945;28;20206;-58
2023/04/06 08:16:43;;;;;;;5.90;4.30;;;;;;;;;;5056537;28;20254;-58
2023/04/06 08:19:11;;;;;;;4.73;4.00;;;;;;;;;;5070590;28;20227;-58
2023/04/06 08:21:39;;;;;;;6.73;4.80;;;;;;;;;;5063480;28;20226;-58
2023/04/06 08:24:06;;;;;;;5.53;4.27;;;;;;;;;;5050520;28;20738;-58
2023/04/06 08:26:33;;;;;;;5.13;4.20;;;;;;;;;;5062891;28;20215;-58
2023/04/06 08:29:00;;;;;;;5.90;4.87;;;;;;;;;;5051454;28;20261;-58
2023/04/06 08:31:27;;;;;;;6.77;5.07;;;;;;;;;;5070356;28;20721;-58
2023/04/06 08:33:56;;;;;;;6.33;4.43;;;;;;;;;;5064817;28;20313;-61
2023/04/06 08:36:23;;;;;;;5.27;4.13;;;;;;;;;;5067446;28;20203;-58
2023/04/06 08:38:51;;;;;;;6.43;4.60;;;;;;;;;;5049926;28;20785;-57
2023/04/06 08:41:18;;;;;;;8.80;4.80;;;;;;;;;;5051245;28;20215;-58
2023/04/06 08:43:45;;;;;;;6.03;4.30;;;;;;;;;;5050154;28;20354;-57
2023/04/06 08:46:13;;;;;;;5.00;4.43;;;;;;;;;;5051020;28;20203;-58
2023/04/06 08:48:40;;;;;;;6.20;5.20;;;;;;;;;;5047929;28;20212;-58
2023/04/06 08:51:09;;;;;;;6.77;5.40;;;;;;;;;;5049067;28;20749;-58
2023/04/06 08:53:36;;;;;;;6.40;4.67;;;;;;;;;;5048958;28;20219;-58
2023/04/06 08:56:03;;;;;;;8.30;4.63;;;;;;;;;;5063392;28;20681;-58
2023/04/06 08:58:34;;;;;;;6.47;5.33;;;;;;;;;;5065521;28;20878;-58
2023/04/06 09:01:02;;;;;;;6.90;5.27;;;;;;;;;;5066385;28;20249;-59
2023/04/06 09:03:30;;;;;;;7.53;4.67;;;;;;;;;;5066917;28;20210;-58
2023/04/06 09:05:57;;;;;;;10.47;5.93;;;;;;;;;;5068886;28;20217;-58
2023/04/06 09:08:26;;;;;;;6.30;4.90;;;;;;;;;;5069029;28;20227;-58
2023/04/06 09:10:53;;;;;;;5.67;4.50;;;;;;;;;;5068642;28;20829;-58
2023/04/06 09:13:20;;;;;;;5.87;5.27;;;;;;;;;;5068627;28;20203;-59
2023/04/06 09:15:47;;;;;;;7.83;5.67;;;;;;;;;;5066978;28;20677;-58
2023/04/06 09:18:14;;;;;;;6.77;5.53;;;;;;;;;;5068680;28;20202;-58
2023/04/06 09:20:41;;;;;;;6.80;4.63;;;;;;;;;;5068793;28;20235;-59
2023/04/06 09:23:08;;;;;;;8.37;5.30;;;;;;;;;;5068840;28;20241;-58
2023/04/06 09:25:36;;;;;;;14.60;5.40;;;;;;;;;;5068776;28;20673;-58
2023/04/06 09:28:06;;;;;;;6.77;5.10;;;;;;;;;;5068887;28;20264;-58
2023/04/06 09:30:35;;;;;;;7.80;5.37;;;;;;;;;;5068812;28;20203;-58
2023/04/06 09:33:02;;;;;;;5.40;4.50;;;;;;;;;;5068772;28;20217;-58
2023/04/06 09:35:31;;;;;;;15.07;4.93;;;;;;;;;;5068805;28;20263;-58
2023/04/06 09:37:58;;;;;;;8.10;5.30;;;;;;;;;;5068014;28;20242;-58
2023/04/06 09:40:25;;;;;;;8.47;5.50;;;;;;;;;;5067853;28;20245;-58
2023/04/06 09:42:57;;;;;;;7.17;5.53;;;;;;;;;;5068562;28;20207;-59
2023/04/06 09:45:24;;;;;;;9.40;5.53;;;;;;;;;;5068365;28;20234;-59
2023/04/06 09:47:53;;;;;;;8.43;5.63;;;;;;;;;;5068312;28;20219;-59
2023/04/06 09:50:21;;;;;;;7.23;4.63;;;;;;;;;;5068199;28;20203;-58
2023/04/06 09:52:49;;;;;;;7.60;5.00;;;;;;;;;;5068300;28;20202;-58
2023/04/06 09:55:20;;;;;;;8.13;5.40;;;;;;;;;;5068175;28;20210;-59
2023/04/06 09:57:48;;;;;;;8.00;5.50;;;;;;;;;;5068277;28;20247;-58
2023/04/06 10:00:20;;;;;;;5.80;4.80;;;;;;;;;;5068332;28;20235;-59
2023/04/06 10:02:50;;;;;;;4.43;4.03;;;;;;;;;;5067932;28;20230;-58
2023/04/06 10:05:21;;;;;;;5.78;4.30;;;;;;;;;;5068164;28;20590;-58
2023/04/06 10:07:50;;;;;;;6.93;5.15;;;;;;;;;;5068112;28;20302;-59
2023/04/06 10:10:17;;;;;;;9.07;5.47;;;;;;;;;;5068263;28;20230;-59
2023/04/06 10:12:45;;;;;;;5.13;4.27;;;;;;;;;;5068287;28;20576;-58
2023/04/06 10:15:12;;;;;;;8.73;4.43;;;;;;;;;;5068394;28;20252;-58
2023/04/06 10:17:41;;;;;;;5.00;4.53;;;;;;;;;;5068072;28;20215;-59
2023/04/06 10:20:10;;;;;;;8.00;4.90;;;;;;;;;;5068211;28;20501;-58
2023/04/06 10:22:42;;;;;;;8.70;5.28;;;;;;;;;;5068321;28;20234;-59
2023/04/06 10:25:09;;;;;;;5.82;4.72;;;;;;;;;;5068176;28;20219;-59
2023/04/06 10:27:36;;;;;;;6.43;4.60;;;;;;;;;;5068321;28;20210;-58
2023/04/06 10:30:04;;;;;;;7.70;4.93;;;;;;;;;;5067966;28;20207;-58
2023/04/06 10:32:35;;;;;;;5.43;4.72;;;;;;;;;;5067865;28;20218;-59
2023/04/06 10:35:11;;;;;;;9.25;5.18;;;;;;;;;;5067893;28;20257;-59
2023/04/06 10:37:49;;;;;;;6.18;5.15;;;;;;;;;;5067919;28;20203;-59
2023/04/06 10:40:19;;;;;;;6.65;5.00;;;;;;;;;;5067654;28;20241;-59
2023/04/06 10:42:47;;;;;;;7.70;5.15;;;;;;;;;;5067938;28;20565;-59
2023/04/06 10:45:20;;;;;;;8.20;4.55;;;;;;;;;;5067857;28;20297;-58
2023/04/06 10:47:47;;;;;;;6.78;4.60;;;;;;;;;;5067557;28;20253;-59
2023/04/06 10:50:16;;;;;;;6.43;4.10;;;;;;;;;;5068899;28;20207;-58
2023/04/06 10:52:45;;;;;;;10.85;5.50;;;;;;;;;;5071617;28;20301;-58
2023/04/06 10:55:13;;;;;;;8.48;5.57;;;;;;;;;;5071388;28;20306;-59
2023/04/06 10:57:40;;;;;;;9.00;5.70;;;;;;;;;;5071766;28;20206;-59
2023/04/06 11:00:09;;;;;;;9.88;5.60;;;;;;;;;;5071742;28;20325;-59
2023/04/06 11:02:36;;;;;;;7.13;5.18;;;;;;;;;;5071622;28;20211;-59
2023/04/06 11:05:03;;;;;;;11.50;5.20;;;;;;;;;;5071497;28;20308;-59
2023/04/06 11:07:31;;;;;;;5.65;4.15;;;;;;;;;;5071257;28;20214;-58
2023/04/06 11:09:58;;;;;;;6.18;4.35;;;;;;;;;;5071207;28;20214;-59
2023/04/06 11:12:26;;;;;;;5.95;4.40;;;;;;;;;;5071068;28;20657;-59
2023/04/06 11:14:55;;;;;;;8.27;4.90;;;;;;;;;;5071066;28;20210;-59
2023/04/06 11:17:27;;;;;;;5.88;3.90;;;;;;;;;;5070955;28;20213;-58
2023/04/06 11:19:54;;;;;;;7.60;4.50;;;;;;;;;;5071189;28;20571;-59
2023/04/06 11:22:21;;;;;;;8.13;4.88;;;;;;;;;;5070860;28;20252;-59
2023/04/06 11:24:49;;;;;;;6.93;5.15;;;;;;;;;;5071061;28;20219;-59
2023/04/06 11:27:16;;;;;;;6.38;4.32;;;;;;;;;;5071081;28;20223;-58
2023/04/06 11:29:45;;;;;;;5.63;4.05;;;;;;;;;;5067681;28;20222;-59
2023/04/06 11:32:13;;;;;;;5.10;3.80;;;;;;;;;;5060654;28;20227;-61
2023/04/06 11:34:41;;;;;;;7.25;4.72;;;;;;;;;;5063006;28;20791;-58
2023/04/06 11:37:09;;;;;;;6.70;5.07;;;;;;;;;;5067484;28;20709;-60
2023/04/06 11:39:40;;;;;;;4.25;3.50;;;;;;;;;;5051775;28;20322;-57
2023/04/06 11:42:09;;;;;;;6.15;4.25;;;;;;;;;;5050874;28;20789;-58
2023/04/06 11:44:38;;;;;;;10.13;3.67;;;;;;;;;;5067345;28;20234;-58
2023/04/06 11:47:06;;;;;;;4.35;3.95;;;;;;;;;;5062946;28;20203;-57
2023/04/06 11:49:33;;;;;;;6.15;4.70;;;;;;;;;;5065681;28;20225;-59
2023/04/06 11:52:01;;;;;;;9.27;4.75;;;;;;;;;;5066274;28;20200;-61
2023/04/06 11:54:32;;;;;;;6.47;4.35;;;;;;;;;;5066040;28;20684;-59
2023/04/06 11:57:00;;;;;;;9.32;4.72;;;;;;;;;;5064330;28;20206;-59
2023/04/06 11:59:28;;;;;;;4.88;3.83;;;;;;;;;;5057879;28;20294;-59
2023/04/06 12:01:55;;;;;;;5.30;4.20;;;;;;;;;;5049565;28;20235;-59
2023/04/06 12:04:22;;;;;;;8.23;4.97;;;;;;;;;;5051733;28;20666;-59
2023/04/06 12:06:49;;;;;;;7.93;4.70;;;;;;;;;;5050616;28;20211;-59
2023/04/06 12:09:17;;;;;;;10.82;5.35;;;;;;;;;;5052476;28;20207;-60
2023/04/06 12:11:44;;;;;;;5.93;4.60;;;;;;;;;;5059487;28;20755;-59
2023/04/06 12:14:11;;;;;;;4.97;4.47;;;;;;;;;;5058060;28;20249;-59
2023/04/06 12:16:39;;;;;;;6.78;4.70;;;;;;;;;;5068030;28;20215;-59
2023/04/06 12:19:07;;;;;;;4.80;3.60;;;;;;;;;;5069778;28;20245;-59
2023/04/06 12:21:36;;;;;;;9.43;4.88;;;;;;;;;;5054851;28;20255;-59
2023/04/06 12:24:03;;;;;;;5.85;3.22;;;;;;;;;;5050592;28;20211;-60
2023/04/06 12:26:31;;;;;;;5.13;2.85;;;;;;;;;;5056310;28;20231;-60
2023/04/06 12:29:02;;;;;;;4.35;3.33;;;;;;;;;;5050272;28;20211;-60
2023/04/06 12:31:30;;;;;;;6.97;3.97;;;;;;;;;;5057011;28;20191;-60
2023/04/06 12:33:58;;;;;;;5.40;3.90;;;;;;;;;;5070103;28;20309;-60
2023/04/06 12:36:25;;;;;;;5.65;3.75;;;;;;;;;;5068312;28;20206;-60
2023/04/06 12:38:52;;;;;;;4.32;3.30;;;;;;;;;;5061022;28;20330;-60
2023/04/06 12:41:19;;;;;;;3.90;3.35;;;;;;;;;;5050725;28;20308;-60
2023/04/06 12:43:47;;;;;;;4.20;3.00;;;;;;;;;;5052442;28;20692;-60
2023/04/06 12:46:14;;;;;;;5.93;3.53;;;;;;;;;;5050329;28;20207;-60
2023/04/06 12:48:41;;;;;;;7.22;2.88;;;;;;;;;;5063673;28;20309;-60
2023/04/06 12:51:09;;;;;;;4.07;3.20;;;;;;;;;;5061642;28;20218;-60
2023/04/06 12:53:37;;;;;;;7.13;3.72;;;;;;;;;;5049817;28;20208;-60
2023/04/06 12:56:04;;;;;;;3.17;2.88;;;;;;;;;;5050787;28;20203;-60
2023/04/06 12:58:31;;;;;;;8.20;3.45;;;;;;;;;;5057441;28;20223;-60
2023/04/06 13:01:02;;;;;;;4.47;3.78;;;;;;;;;;5055539;28;20230;-60
2023/04/06 13:03:30;;;;;;;4.85;3.65;;;;;;;;;;5049827;28;20211;-59
2023/04/06 13:05:57;;;;;;;4.75;3.53;;;;;;;;;;5050651;28;20231;-61
2023/04/06 13:08:25;;;;;;;8.43;3.38;;;;;;;;;;5049967;28;20689;-60
2023/04/06 13:10:53;;;;;;;4.65;3.60;;;;;;;;;;5061329;28;20202;-61
2023/04/06 13:13:24;;;;;;;4.43;3.42;;;;;;;;;;5064880;28;20222;-59
2023/04/06 13:15:51;;;;;;;3.10;2.90;;;;;;;;;;5050852;28;20227;-62
2023/04/06 13:18:18;;;;;;;3.72;3.05;;;;;;;;;;5055652;28;20234;-60
2023/04/06 13:20:45;;;;;;;9.98;2.60;;;;;;;;;;5062490;28;20231;-59
2023/04/06 13:23:12;;;;;;;5.18;3.45;;;;;;;;;;5064382;28;20227;-59
2023/04/06 13:25:40;;;;;;;3.55;2.85;;;;;;;;;;5065377;28;20230;-58
2023/04/06 13:28:07;;;;;;;3.08;2.85;;;;;;;;;;5049459;28;20211;-60
2023/04/06 13:30:35;;;;;;;6.32;3.30;;;;;;;;;;5052392;28;20226;-61
2023/04/06 13:33:02;;;;;;;2.92;2.72;;;;;;;;;;5050122;28;20204;-59
2023/04/06 13:35:29;;;;;;;4.95;2.92;;;;;;;;;;5052642;28;20306;-59
2023/04/06 13:37:56;;;;;;;2.75;2.55;;;;;;;;;;5061595;28;20209;-59
2023/04/06 13:40:23;;;;;;;3.75;2.75;;;;;;;;;;5054571;28;20218;-58
2023/04/06 13:42:52;;;;;;;3.72;2.72;;;;;;;;;;5063759;28;20223;-59
2023/04/06 13:45:20;;;;;;;4.63;3.30;;;;;;;;;;5061017;28;20208;-58
2023/04/06 13:47:47;;;;;;;2.90;2.70;;;;;;;;;;5059983;28;20214;-58
2023/04/06 13:50:14;;;;;;;3.17;2.85;;;;;;;;;;5061867;28;20207;-59
2023/04/06 13:52:41;;;;;;;5.18;2.83;;;;;;;;;;5058575;28;20196;-58
2023/04/06 13:55:08;;;;;;;3.47;2.78;;;;;;;;;;5057503;28;20218;-58
2023/04/06 13:57:36;;;;;;;6.70;2.80;;;;;;;;;;5068182;28;20195;-58
2023/04/06 14:00:06;;;;;;;2.95;2.72;;;;;;;;;;5068836;28;20205;-58
2023/04/06 14:02:33;;;;;;;4.05;2.45;;;;;;;;;;5066238;28;20325;-59
2023/04/06 14:05:00;;;;;;;4.10;3.08;;;;;;;;;;5066579;28;20211;-59
2023/04/06 14:07:27;;;;;;;3.97;2.72;;;;;;;;;;5061107;28;20218;-58
2023/04/06 14:09:54;;;;;;;4.63;2.90;;;;;;;;;;5062719;28;20203;-58
2023/04/06 14:12:21;;;;;;;3.28;2.88;;;;;;;;;;5048856;28;20196;-58
2023/04/06 14:14:48;;;;;;;3.20;2.90;;;;;;;;;;5048095;28;20638;-59
2023/04/06 14:17:16;;;;;;;3.53;2.78;;;;;;;;;;5049459;28;20208;-59
2023/04/06 14:19:44;;;;;;;2.55;2.25;;;;;;;;;;5066075;28;20206;-59
2023/04/06 14:22:11;;;;;;;3.25;3.03;;;;;;;;;;5051219;28;20488;-60
2023/04/06 14:24:38;;;;;;;3.30;3.10;;;;;;;;;;5049152;28;20206;-59
2023/04/06 14:27:05;;;;;;;3.45;3.20;;;;;;;;;;5065621;28;20307;-59
2023/04/06 14:29:32;;;;;;;3.40;3.10;;;;;;;;;;5063098;28;20230;-59
2023/04/06 14:32:00;;;;;;;4.53;3.70;;;;;;;;;;5070893;28;20195;-59
2023/04/06 14:34:29;;;;;;;5.32;3.20;;;;;;;;;;5070149;28;20210;-59
2023/04/06 14:36:56;;;;;;;4.32;3.35;;;;;;;;;;5069935;28;20229;-59
2023/04/06 14:39:23;;;;;;;3.50;3.20;;;;;;;;;;5064773;28;20224;-59
2023/04/06 14:41:51;;;;;;;4.93;3.47;;;;;;;;;;5051528;28;20228;-59
2023/04/06 14:44:18;;;;;;;3.83;2.78;;;;;;;;;;5052470;28;20722;-59